sensor_id;sensor_type;location;lat;lon;timestamp;temperature;humidity
6174;DHT22;3120;48.796;9.796;2022-11-20T00:02:33;6.60;99.90
6174;DHT22;3120;48.796;9.796;2022-11-20T00:04:59;6.60;99.90
6174;DHT22;3120;48.796;9.796;2022-11-20T00:07:27;6.60;99.90
6174;DHT22;3120;48.796;9.796;2022-11-20T00:09:53;6.60;99.90
6174;DHT22;3120;48.796;9.796;2022-11-20T00:12:18;8.00;99.90
6174;DHT22;3120;48.796;9.796;2022-11-20T00:14:44;6.60;99.90
6174;DHT22;3120;48.796;9.796;2022-11-20T00:17:10;7.90;99.90
6174;DHT22;3120;48.796;9.796;2022-11-20T00:19:35;7.20;99.90
6174;DHT22;3120;48.796;9.796;2022-11-20T00:22:01;6.60;99.90
6174;DHT22;3120;48.796;9.796;2022-11-20T00:24:27;7.90;99.90
6174;DHT22;3120;48.796;9.796;2022-11-20T00:26:52;6.40;99.90
6174;DHT22;3120;48.796;9.796;2022-11-20T00:29:18;7.70;99.90
6174;DHT22;3120;48.796;9.796;2022-11-20T00:31:43;6.80;99.90
6174;DHT22;3120;48.796;9.796;2022-11-20T00:34:09;7.70;99.90
6174;DHT22;3120;48.796;9.796;2022-11-20T00:36:35;6.20;99.90
6174;DHT22;3120;48.796;9.796;2022-11-20T00:39:01;7.30;99.90
6174;DHT22;3120;48.796;9.796;2022-11-20T00:41:28;6.10;99.90
6174;DHT22;3120;48.796;9.796;2022-11-20T00:43:54;6.10;99.90
6174;DHT22;3120;48.796;9.796;2022-11-20T00:46:22;6.30;99.90
6174;DHT22;3120;48.796;9.796;2022-11-20T00:48:48;7.10;99.90
6174;DHT22;3120;48.796;9.796;2022-11-20T00:51:16;7.40;99.90
6174;DHT22;3120;48.796;9.796;2022-11-20T00:53:43;7.20;99.90
6174;DHT22;3120;48.796;9.796;2022-11-20T00:56:14;6.30;99.90
6174;DHT22;3120;48.796;9.796;2022-11-20T00:58:42;6.10;99.90
6174;DHT22;3120;48.796;9.796;2022-11-20T01:01:16;6.50;99.90
6174;DHT22;3120;48.796;9.796;2022-11-20T01:03:48;6.00;99.90
6174;DHT22;3120;48.796;9.796;2022-11-20T01:08:56;6.00;99.90
6174;DHT22;3120;48.796;9.796;2022-11-20T01:11:28;6.00;99.90
6174;DHT22;3120;48.796;9.796;2022-11-20T01:13:55;6.00;99.90
6174;DHT22;3120;48.796;9.796;2022-11-20T01:16:23;6.20;99.90
6174;DHT22;3120;48.796;9.796;2022-11-20T01:18:52;6.60;99.90
6174;DHT22;3120;48.796;9.796;2022-11-20T01:21:20;5.90;99.90
6174;DHT22;3120;48.796;9.796;2022-11-20T01:23:47;6.90;99.90
6174;DHT22;3120;48.796;9.796;2022-11-20T01:26:16;6.40;99.90
6174;DHT22;3120;48.796;9.796;2022-11-20T01:28:42;6.00;99.90
6174;DHT22;3120;48.796;9.796;2022-11-20T01:31:20;6.50;99.90
6174;DHT22;3120;48.796;9.796;2022-11-20T01:33:47;5.90;99.90
6174;DHT22;3120;48.796;9.796;2022-11-20T01:36:14;6.00;99.90
6174;DHT22;3120;48.796;9.796;2022-11-20T01:38:41;7.20;99.90
6174;DHT22;3120;48.796;9.796;2022-11-20T01:41:07;6.00;99.90
6174;DHT22;3120;48.796;9.796;2022-11-20T01:43:33;5.90;99.90
6174;DHT22;3120;48.796;9.796;2022-11-20T01:46:08;5.90;99.90
6174;DHT22;3120;48.796;9.796;2022-11-20T01:54:17;7.00;99.90
6174;DHT22;3120;48.796;9.796;2022-11-20T01:56:46;5.90;99.90
6174;DHT22;3120;48.796;9.796;2022-11-20T01:59:15;6.80;99.90
6174;DHT22;3120;48.796;9.796;2022-11-20T02:01:41;6.90;99.90
6174;DHT22;3120;48.796;9.796;2022-11-20T02:04:08;6.90;99.90
6174;DHT22;3120;48.796;9.796;2022-11-20T02:06:50;5.90;99.90
6174;DHT22;3120;48.796;9.796;2022-11-20T02:09:17;5.90;99.90
6174;DHT22;3120;48.796;9.796;2022-11-20T02:11:43;7.20;99.90
6174;DHT22;3120;48.796;9.796;2022-11-20T02:14:09;5.90;99.90
6174;DHT22;3120;48.796;9.796;2022-11-20T02:16:45;6.90;99.90
6174;DHT22;3120;48.796;9.796;2022-11-20T02:19:19;5.80;99.90
6174;DHT22;3120;48.796;9.796;2022-11-20T02:21:48;7.10;99.90
6174;DHT22;3120;48.796;9.796;2022-11-20T02:24:18;7.20;99.90
6174;DHT22;3120;48.796;9.796;2022-11-20T02:27:29;5.80;99.90
6174;DHT22;3120;48.796;9.796;2022-11-20T02:32:23;5.80;99.90
6174;DHT22;3120;48.796;9.796;2022-11-20T02:34:49;5.90;99.90
6174;DHT22;3120;48.796;9.796;2022-11-20T02:37:15;5.80;99.90
6174;DHT22;3120;48.796;9.796;2022-11-20T02:39:42;6.70;99.90
6174;DHT22;3120;48.796;9.796;2022-11-20T02:42:08;6.40;99.90
6174;DHT22;3120;48.796;9.796;2022-11-20T02:44:34;6.90;99.90
6174;DHT22;3120;48.796;9.796;2022-11-20T02:46:59;5.80;99.90
6174;DHT22;3120;48.796;9.796;2022-11-20T02:49:25;6.60;99.90
6174;DHT22;3120;48.796;9.796;2022-11-20T02:51:51;6.00;99.90
6174;DHT22;3120;48.796;9.796;2022-11-20T02:54:17;5.80;99.90
6174;DHT22;3120;48.796;9.796;2022-11-20T02:56:43;6.80;99.90
6174;DHT22;3120;48.796;9.796;2022-11-20T02:59:09;7.00;99.90
6174;DHT22;3120;48.796;9.796;2022-11-20T03:01:35;6.70;99.90
6174;DHT22;3120;48.796;9.796;2022-11-20T03:04:01;5.70;99.90
6174;DHT22;3120;48.796;9.796;2022-11-20T03:06:27;7.20;99.90
6174;DHT22;3120;48.796;9.796;2022-11-20T03:08:53;6.40;99.90
6174;DHT22;3120;48.796;9.796;2022-11-20T03:11:18;6.90;99.90
6174;DHT22;3120;48.796;9.796;2022-11-20T03:13:44;5.80;99.90
6174;DHT22;3120;48.796;9.796;2022-11-20T03:16:30;5.80;99.90
6174;DHT22;3120;48.796;9.796;2022-11-20T03:18:56;5.70;99.90
6174;DHT22;3120;48.796;9.796;2022-11-20T03:21:21;7.00;99.90
6174;DHT22;3120;48.796;9.796;2022-11-20T03:23:47;5.70;99.90
6174;DHT22;3120;48.796;9.796;2022-11-20T03:26:19;6.70;99.90
6174;DHT22;3120;48.796;9.796;2022-11-20T03:28:50;7.20;99.90
6174;DHT22;3120;48.796;9.796;2022-11-20T03:31:18;5.80;99.90
6174;DHT22;3120;48.796;9.796;2022-11-20T03:33:44;5.80;99.90
6174;DHT22;3120;48.796;9.796;2022-11-20T03:36:12;5.80;99.90
6174;DHT22;3120;48.796;9.796;2022-11-20T03:38:38;5.70;99.90
6174;DHT22;3120;48.796;9.796;2022-11-20T03:41:09;6.30;99.90
6174;DHT22;3120;48.796;9.796;2022-11-20T03:43:35;6.50;99.90
6174;DHT22;3120;48.796;9.796;2022-11-20T03:46:01;5.70;99.90
6174;DHT22;3120;48.796;9.796;2022-11-20T03:48:27;6.30;99.90
6174;DHT22;3120;48.796;9.796;2022-11-20T03:51:15;5.70;99.90
6174;DHT22;3120;48.796;9.796;2022-11-20T03:53:43;5.70;99.90
6174;DHT22;3120;48.796;9.796;2022-11-20T03:56:09;6.40;99.90
6174;DHT22;3120;48.796;9.796;2022-11-20T03:58:36;5.90;99.90
6174;DHT22;3120;48.796;9.796;2022-11-20T04:01:13;5.60;99.90
6174;DHT22;3120;48.796;9.796;2022-11-20T04:03:40;5.60;99.90
6174;DHT22;3120;48.796;9.796;2022-11-20T04:06:11;5.70;99.90
6174;DHT22;3120;48.796;9.796;2022-11-20T04:08:37;5.60;99.90
6174;DHT22;3120;48.796;9.796;2022-11-20T04:11:10;5.60;99.90
6174;DHT22;3120;48.796;9.796;2022-11-20T04:13:36;6.20;99.90
6174;DHT22;3120;48.796;9.796;2022-11-20T04:16:02;5.60;99.90
6174;DHT22;3120;48.796;9.796;2022-11-20T04:18:28;5.60;99.90
6174;DHT22;3120;48.796;9.796;2022-11-20T04:20:53;6.70;99.90
6174;DHT22;3120;48.796;9.796;2022-11-20T04:23:19;5.60;99.90
6174;DHT22;3120;48.796;9.796;2022-11-20T04:25:44;6.50;99.90
6174;DHT22;3120;48.796;9.796;2022-11-20T04:28:10;5.50;99.90
6174;DHT22;3120;48.796;9.796;2022-11-20T04:30:36;5.50;99.90
6174;DHT22;3120;48.796;9.796;2022-11-20T04:33:01;6.00;99.90
6174;DHT22;3120;48.796;9.796;2022-11-20T04:35:27;6.70;99.90
6174;DHT22;3120;48.796;9.796;2022-11-20T04:37:52;5.40;99.90
6174;DHT22;3120;48.796;9.796;2022-11-20T04:40:18;5.40;99.90
6174;DHT22;3120;48.796;9.796;2022-11-20T04:42:43;5.40;99.90
6174;DHT22;3120;48.796;9.796;2022-11-20T04:45:09;5.40;99.90
6174;DHT22;3120;48.796;9.796;2022-11-20T04:47:35;5.40;99.90
6174;DHT22;3120;48.796;9.796;2022-11-20T04:50:00;6.70;99.90
6174;DHT22;3120;48.796;9.796;2022-11-20T04:52:26;5.50;99.90
6174;DHT22;3120;48.796;9.796;2022-11-20T04:54:52;6.30;99.90
6174;DHT22;3120;48.796;9.796;2022-11-20T04:57:19;5.50;99.90
6174;DHT22;3120;48.796;9.796;2022-11-20T04:59:44;5.50;99.90
6174;DHT22;3120;48.796;9.796;2022-11-20T05:02:10;5.50;99.90
6174;DHT22;3120;48.796;9.796;2022-11-20T05:04:36;5.60;99.90
6174;DHT22;3120;48.796;9.796;2022-11-20T05:07:02;6.40;99.90
6174;DHT22;3120;48.796;9.796;2022-11-20T05:09:28;5.60;99.90
6174;DHT22;3120;48.796;9.796;2022-11-20T05:11:53;5.60;99.90
6174;DHT22;3120;48.796;9.796;2022-11-20T05:14:19;6.70;99.90
6174;DHT22;3120;48.796;9.796;2022-11-20T05:16:44;5.50;99.90
6174;DHT22;3120;48.796;9.796;2022-11-20T05:19:10;5.60;99.90
6174;DHT22;3120;48.796;9.796;2022-11-20T05:21:36;5.60;99.90
6174;DHT22;3120;48.796;9.796;2022-11-20T05:24:01;5.60;99.90
6174;DHT22;3120;48.796;9.796;2022-11-20T05:26:27;5.60;99.90
6174;DHT22;3120;48.796;9.796;2022-11-20T05:28:52;5.60;99.90
6174;DHT22;3120;48.796;9.796;2022-11-20T05:31:21;5.60;99.90
6174;DHT22;3120;48.796;9.796;2022-11-20T05:33:47;5.60;99.90
6174;DHT22;3120;48.796;9.796;2022-11-20T05:36:13;5.70;99.90
6174;DHT22;3120;48.796;9.796;2022-11-20T05:38:40;6.80;99.90
6174;DHT22;3120;48.796;9.796;2022-11-20T05:41:11;5.60;99.90
6174;DHT22;3120;48.796;9.796;2022-11-20T05:43:38;5.60;99.90
6174;DHT22;3120;48.796;9.796;2022-11-20T05:46:06;6.70;99.90
6174;DHT22;3120;48.796;9.796;2022-11-20T05:48:32;5.70;99.90
6174;DHT22;3120;48.796;9.796;2022-11-20T05:51:00;5.60;99.90
6174;DHT22;3120;48.796;9.796;2022-11-20T05:53:26;5.70;99.90
6174;DHT22;3120;48.796;9.796;2022-11-20T05:56:07;5.70;99.90
6174;DHT22;3120;48.796;9.796;2022-11-20T05:58:33;5.70;99.90
6174;DHT22;3120;48.796;9.796;2022-11-20T06:01:25;5.60;99.90
6174;DHT22;3120;48.796;9.796;2022-11-20T06:03:53;5.70;99.90
6174;DHT22;3120;48.796;9.796;2022-11-20T06:06:19;5.70;99.90
6174;DHT22;3120;48.796;9.796;2022-11-20T06:08:45;5.70;99.90
6174;DHT22;3120;48.796;9.796;2022-11-20T06:11:13;5.70;99.90
6174;DHT22;3120;48.796;9.796;2022-11-20T06:13:39;5.70;99.90
6174;DHT22;3120;48.796;9.796;2022-11-20T06:16:05;6.20;99.90
6174;DHT22;3120;48.796;9.796;2022-11-20T06:18:31;5.80;99.90
6174;DHT22;3120;48.796;9.796;2022-11-20T06:21:02;5.80;99.90
6174;DHT22;3120;48.796;9.796;2022-11-20T06:23:31;5.80;99.90
6174;DHT22;3120;48.796;9.796;2022-11-20T06:26:00;6.60;99.90
6174;DHT22;3120;48.796;9.796;2022-11-20T06:28:26;5.80;99.90
6174;DHT22;3120;48.796;9.796;2022-11-20T06:30:55;5.80;99.90
6174;DHT22;3120;48.796;9.796;2022-11-20T06:33:23;5.80;99.90
6174;DHT22;3120;48.796;9.796;2022-11-20T06:35:51;6.80;99.90
6174;DHT22;3120;48.796;9.796;2022-11-20T06:38:23;5.90;99.90
6174;DHT22;3120;48.796;9.796;2022-11-20T06:40:56;6.00;99.90
6174;DHT22;3120;48.796;9.796;2022-11-20T06:43:29;6.10;99.90
6174;DHT22;3120;48.796;9.796;2022-11-20T06:45:59;6.00;99.90
6174;DHT22;3120;48.796;9.796;2022-11-20T06:48:26;6.90;99.90
6174;DHT22;3120;48.796;9.796;2022-11-20T06:50:53;6.00;99.90
6174;DHT22;3120;48.796;9.796;2022-11-20T06:53:22;6.10;99.90
6174;DHT22;3120;48.796;9.796;2022-11-20T06:55:48;6.10;99.90
6174;DHT22;3120;48.796;9.796;2022-11-20T06:58:16;7.50;99.90
6174;DHT22;3120;48.796;9.796;2022-11-20T07:00:42;6.10;99.90
6174;DHT22;3120;48.796;9.796;2022-11-20T07:03:10;6.20;99.90
6174;DHT22;3120;48.796;9.796;2022-11-20T07:05:41;6.20;99.90
6174;DHT22;3120;48.796;9.796;2022-11-20T07:08:07;6.20;99.90
6174;DHT22;3120;48.796;9.796;2022-11-20T07:10:33;6.20;99.90
6174;DHT22;3120;48.796;9.796;2022-11-20T07:13:25;7.60;99.90
6174;DHT22;3120;48.796;9.796;2022-11-20T07:16:06;6.30;99.90
6174;DHT22;3120;48.796;9.796;2022-11-20T07:18:35;6.20;99.90
6174;DHT22;3120;48.796;9.796;2022-11-20T07:21:19;6.30;99.90
6174;DHT22;3120;48.796;9.796;2022-11-20T07:23:45;6.30;99.90
6174;DHT22;3120;48.796;9.796;2022-11-20T07:26:11;6.30;99.90
6174;DHT22;3120;48.796;9.796;2022-11-20T07:28:37;6.30;99.90
6174;DHT22;3120;48.796;9.796;2022-11-20T07:31:03;6.40;99.90
6174;DHT22;3120;48.796;9.796;2022-11-20T07:33:28;6.40;99.90
6174;DHT22;3120;48.796;9.796;2022-11-20T07:35:54;6.40;99.90
6174;DHT22;3120;48.796;9.796;2022-11-20T07:38:20;6.40;99.90
6174;DHT22;3120;48.796;9.796;2022-11-20T07:41:03;6.40;99.90
6174;DHT22;3120;48.796;9.796;2022-11-20T07:43:29;7.00;99.90
6174;DHT22;3120;48.796;9.796;2022-11-20T07:45:59;7.20;99.90
6174;DHT22;3120;48.796;9.796;2022-11-20T07:48:25;7.30;99.90
6174;DHT22;3120;48.796;9.796;2022-11-20T07:50:57;7.40;99.90
6174;DHT22;3120;48.796;9.796;2022-11-20T07:53:23;7.30;99.90
6174;DHT22;3120;48.796;9.796;2022-11-20T07:55:49;6.50;99.90
6174;DHT22;3120;48.796;9.796;2022-11-20T07:58:18;6.50;99.90
6174;DHT22;3120;48.796;9.796;2022-11-20T08:00:43;6.50;99.90
6174;DHT22;3120;48.796;9.796;2022-11-20T08:03:15;6.60;99.90
6174;DHT22;3120;48.796;9.796;2022-11-20T08:05:41;6.60;99.90
6174;DHT22;3120;48.796;9.796;2022-11-20T08:08:06;6.60;99.90
6174;DHT22;3120;48.796;9.796;2022-11-20T08:10:33;6.70;99.90
6174;DHT22;3120;48.796;9.796;2022-11-20T08:12:58;6.60;99.90
6174;DHT22;3120;48.796;9.796;2022-11-20T08:15:48;6.60;99.90
6174;DHT22;3120;48.796;9.796;2022-11-20T08:18:19;6.60;99.90
6174;DHT22;3120;48.796;9.796;2022-11-20T08:20:45;6.70;99.90
6174;DHT22;3120;48.796;9.796;2022-11-20T08:23:10;7.80;99.90
6174;DHT22;3120;48.796;9.796;2022-11-20T08:25:37;6.70;99.90
6174;DHT22;3120;48.796;9.796;2022-11-20T08:28:08;7.90;99.90
6174;DHT22;3120;48.796;9.796;2022-11-20T08:30:35;7.00;99.90
6174;DHT22;3120;48.796;9.796;2022-11-20T08:33:06;6.80;99.90
6174;DHT22;3120;48.796;9.796;2022-11-20T08:35:34;6.80;99.90
6174;DHT22;3120;48.796;9.796;2022-11-20T08:38:05;6.80;99.90
6174;DHT22;3120;48.796;9.796;2022-11-20T08:40:31;6.70;99.90
6174;DHT22;3120;48.796;9.796;2022-11-20T08:42:57;6.70;99.90
6174;DHT22;3120;48.796;9.796;2022-11-20T08:45:23;6.70;99.90
6174;DHT22;3120;48.796;9.796;2022-11-20T08:47:48;6.70;99.90
6174;DHT22;3120;48.796;9.796;2022-11-20T08:50:15;6.70;99.90
6174;DHT22;3120;48.796;9.796;2022-11-20T08:52:41;7.70;99.90
6174;DHT22;3120;48.796;9.796;2022-11-20T08:55:07;7.50;99.90
6174;DHT22;3120;48.796;9.796;2022-11-20T08:57:34;6.70;99.90
6174;DHT22;3120;48.796;9.796;2022-11-20T09:00:00;6.70;99.90
6174;DHT22;3120;48.796;9.796;2022-11-20T09:02:26;6.70;99.90
6174;DHT22;3120;48.796;9.796;2022-11-20T09:05:02;6.80;99.90
6174;DHT22;3120;48.796;9.796;2022-11-20T09:07:28;6.80;99.90
6174;DHT22;3120;48.796;9.796;2022-11-20T09:09:54;6.90;99.90
6174;DHT22;3120;48.796;9.796;2022-11-20T09:12:20;6.90;99.90
6174;DHT22;3120;48.796;9.796;2022-11-20T09:14:46;6.90;99.90
6174;DHT22;3120;48.796;9.796;2022-11-20T09:17:14;7.00;99.90
6174;DHT22;3120;48.796;9.796;2022-11-20T09:19:43;6.90;99.90
6174;DHT22;3120;48.796;9.796;2022-11-20T09:22:09;6.90;99.90
6174;DHT22;3120;48.796;9.796;2022-11-20T09:24:34;6.90;99.90
6174;DHT22;3120;48.796;9.796;2022-11-20T09:27:04;7.00;99.90
6174;DHT22;3120;48.796;9.796;2022-11-20T09:29:32;7.80;99.90
6174;DHT22;3120;48.796;9.796;2022-11-20T09:31:58;7.00;99.90
6174;DHT22;3120;48.796;9.796;2022-11-20T09:34:24;7.90;99.90
6174;DHT22;3120;48.796;9.796;2022-11-20T09:36:50;7.40;99.90
6174;DHT22;3120;48.796;9.796;2022-11-20T09:39:15;7.00;99.90
6174;DHT22;3120;48.796;9.796;2022-11-20T09:50:32;7.10;99.90
6174;DHT22;3120;48.796;9.796;2022-11-20T09:55:36;7.00;99.90
6174;DHT22;3120;48.796;9.796;2022-11-20T09:58:06;8.00;99.90
6174;DHT22;3120;48.796;9.796;2022-11-20T10:00:36;7.00;99.90
6174;DHT22;3120;48.796;9.796;2022-11-20T10:03:16;7.00;99.90
6174;DHT22;3120;48.796;9.796;2022-11-20T10:05:47;7.10;99.90
6174;DHT22;3120;48.796;9.796;2022-11-20T10:08:24;7.40;99.90
6174;DHT22;3120;48.796;9.796;2022-11-20T10:11:04;7.10;99.90
6174;DHT22;3120;48.796;9.796;2022-11-20T10:13:46;7.10;99.90
6174;DHT22;3120;48.796;9.796;2022-11-20T10:22:39;7.00;99.90
6174;DHT22;3120;48.796;9.796;2022-11-20T10:25:18;7.00;99.90
6174;DHT22;3120;48.796;9.796;2022-11-20T10:28:07;7.00;99.90
6174;DHT22;3120;48.796;9.796;2022-11-20T10:30:43;7.00;99.90
6174;DHT22;3120;48.796;9.796;2022-11-20T10:33:24;7.10;99.90
6174;DHT22;3120;48.796;9.796;2022-11-20T10:38:40;7.10;99.90
6174;DHT22;3120;48.796;9.796;2022-11-20T10:41:17;7.20;99.90
6174;DHT22;3120;48.796;9.796;2022-11-20T10:44:21;7.10;99.90
6174;DHT22;3120;48.796;9.796;2022-11-20T10:47:16;7.20;99.90
6174;DHT22;3120;48.796;9.796;2022-11-20T10:49:47;7.20;99.90
6174;DHT22;3120;48.796;9.796;2022-11-20T10:55:22;7.10;99.90
6174;DHT22;3120;48.796;9.796;2022-11-20T11:00:22;7.00;99.90
6174;DHT22;3120;48.796;9.796;2022-11-20T11:02:53;7.80;99.90
6174;DHT22;3120;48.796;9.796;2022-11-20T11:05:53;7.90;99.90
6174;DHT22;3120;48.796;9.796;2022-11-20T11:08:21;8.10;99.90
6174;DHT22;3120;48.796;9.796;2022-11-20T11:10:56;6.90;99.90
6174;DHT22;3120;48.796;9.796;2022-11-20T11:13:25;6.80;99.90
6174;DHT22;3120;48.796;9.796;2022-11-20T11:15:52;6.80;99.90
6174;DHT22;3120;48.796;9.796;2022-11-20T11:18:30;6.80;99.90
6174;DHT22;3120;48.796;9.796;2022-11-20T11:20:59;6.80;99.90
6174;DHT22;3120;48.796;9.796;2022-11-20T11:26:21;7.60;99.90
6174;DHT22;3120;48.796;9.796;2022-11-20T11:29:03;5.90;99.90
6174;DHT22;3120;48.796;9.796;2022-11-20T11:34:15;6.70;99.90
6174;DHT22;3120;48.796;9.796;2022-11-20T11:36:57;6.60;99.90
6174;DHT22;3120;48.796;9.796;2022-11-20T11:39:25;7.50;99.90
6174;DHT22;3120;48.796;9.796;2022-11-20T11:41:51;8.10;99.90
6174;DHT22;3120;48.796;9.796;2022-11-20T11:50:29;6.80;99.90
6174;DHT22;3120;48.796;9.796;2022-11-20T11:53:17;6.60;99.90
6174;DHT22;3120;48.796;9.796;2022-11-20T11:56:00;6.70;99.90
6174;DHT22;3120;48.796;9.796;2022-11-20T12:03:40;6.70;99.90
6174;DHT22;3120;48.796;9.796;2022-11-20T12:06:15;6.70;99.90
6174;DHT22;3120;48.796;9.796;2022-11-20T12:09:04;6.70;99.90
6174;DHT22;3120;48.796;9.796;2022-11-20T12:11:34;6.70;99.90
6174;DHT22;3120;48.796;9.796;2022-11-20T12:14:37;6.70;99.90
6174;DHT22;3120;48.796;9.796;2022-11-20T12:17:04;6.70;99.90
6174;DHT22;3120;48.796;9.796;2022-11-20T12:19:33;6.70;99.90
6174;DHT22;3120;48.796;9.796;2022-11-20T12:30:22;7.30;99.90
6174;DHT22;3120;48.796;9.796;2022-11-20T12:35:49;7.60;99.90
6174;DHT22;3120;48.796;9.796;2022-11-20T12:38:41;7.70;99.90
6174;DHT22;3120;48.796;9.796;2022-11-20T12:41:41;9.50;99.90
6174;DHT22;3120;48.796;9.796;2022-11-20T12:44:51;7.70;99.90
6174;DHT22;3120;48.796;9.796;2022-11-20T12:51:04;7.70;99.90
6174;DHT22;3120;48.796;9.796;2022-11-20T12:57:02;7.90;99.90
6174;DHT22;3120;48.796;9.796;2022-11-20T12:59:33;7.80;99.90
6174;DHT22;3120;48.796;9.796;2022-11-20T13:07:14;7.90;99.90
6174;DHT22;3120;48.796;9.796;2022-11-20T13:09:45;7.90;99.90
6174;DHT22;3120;48.796;9.796;2022-11-20T13:20:00;8.20;99.90
6174;DHT22;3120;48.796;9.796;2022-11-20T13:22:27;9.30;99.90
6174;DHT22;3120;48.796;9.796;2022-11-20T13:24:53;8.10;99.90
6174;DHT22;3120;48.796;9.796;2022-11-20T13:30:23;8.10;99.90
6174;DHT22;3120;48.796;9.796;2022-11-20T13:32:54;8.00;99.90
6174;DHT22;3120;48.796;9.796;2022-11-20T13:35:54;8.00;99.90
6174;DHT22;3120;48.796;9.796;2022-11-20T13:38:19;7.90;99.90
6174;DHT22;3120;48.796;9.796;2022-11-20T13:40:56;7.90;99.90
6174;DHT22;3120;48.796;9.796;2022-11-20T13:46:08;7.90;99.90
6174;DHT22;3120;48.796;9.796;2022-11-20T13:48:39;9.00;99.90
6174;DHT22;3120;48.796;9.796;2022-11-20T13:59:38;8.00;99.90
6174;DHT22;3120;48.796;9.796;2022-11-20T14:02:11;8.00;99.90
6174;DHT22;3120;48.796;9.796;2022-11-20T14:04:47;8.00;99.90
6174;DHT22;3120;48.796;9.796;2022-11-20T14:07:14;8.10;99.90
6174;DHT22;3120;48.796;9.796;2022-11-20T14:09:55;10.00;99.90
6174;DHT22;3120;48.796;9.796;2022-11-20T14:12:27;8.20;99.90
6174;DHT22;3120;48.796;9.796;2022-11-20T14:14:54;8.70;99.90
6174;DHT22;3120;48.796;9.796;2022-11-20T14:17:23;8.10;99.90
6174;DHT22;3120;48.796;9.796;2022-11-20T14:19:51;8.00;99.90
6174;DHT22;3120;48.796;9.796;2022-11-20T14:22:22;9.70;99.90
6174;DHT22;3120;48.796;9.796;2022-11-20T14:25:00;8.00;99.90
6174;DHT22;3120;48.796;9.796;2022-11-20T14:27:26;7.90;99.90
6174;DHT22;3120;48.796;9.796;2022-11-20T14:29:52;8.00;99.90
6174;DHT22;3120;48.796;9.796;2022-11-20T14:32:21;8.00;99.90
6174;DHT22;3120;48.796;9.796;2022-11-20T14:34:48;8.00;99.90
6174;DHT22;3120;48.796;9.796;2022-11-20T14:37:24;7.90;99.90
6174;DHT22;3120;48.796;9.796;2022-11-20T14:39:54;9.70;99.90
6174;DHT22;3120;48.796;9.796;2022-11-20T14:42:25;7.80;99.90
6174;DHT22;3120;48.796;9.796;2022-11-20T14:44:59;7.60;99.90
6174;DHT22;3120;48.796;9.796;2022-11-20T14:47:29;7.80;84.50
6174;DHT22;3120;48.796;9.796;2022-11-20T14:49:56;7.80;76.80
6174;DHT22;3120;48.796;9.796;2022-11-20T14:52:26;9.00;58.20
6174;DHT22;3120;48.796;9.796;2022-11-20T14:54:57;7.80;10.70
6174;DHT22;3120;48.796;9.796;2022-11-20T14:57:35;8.90;1.00
6174;DHT22;3120;48.796;9.796;2022-11-20T15:00:20;7.70;1.00
6174;DHT22;3120;48.796;9.796;2022-11-20T15:02:48;7.60;12.80
6174;DHT22;3120;48.796;9.796;2022-11-20T15:05:15;7.60;58.20
6174;DHT22;3120;48.796;9.796;2022-11-20T15:08:08;7.60;37.00
6174;DHT22;3120;48.796;9.796;2022-11-20T15:10:37;7.50;99.90
6174;DHT22;3120;48.796;9.796;2022-11-20T15:13:33;7.40;76.70
6174;DHT22;3120;48.796;9.796;2022-11-20T15:16:04;7.40;96.60
6174;DHT22;3120;48.796;9.796;2022-11-20T15:18:39;7.40;33.20
6174;DHT22;3120;48.796;9.796;2022-11-20T15:21:11;7.30;62.60
6174;DHT22;3120;48.796;9.796;2022-11-20T15:23:38;7.90;14.00
6174;DHT22;3120;48.796;9.796;2022-11-20T15:26:05;7.20;14.80
6174;DHT22;3120;48.796;9.796;2022-11-20T15:28:50;8.80;58.90
6174;DHT22;3120;48.796;9.796;2022-11-20T15:31:18;9.40;99.90
6174;DHT22;3120;48.796;9.796;2022-11-20T15:33:44;6.90;97.80
6174;DHT22;3120;48.796;9.796;2022-11-20T15:36:10;6.70;96.50
6174;DHT22;3120;48.796;9.796;2022-11-20T15:38:36;6.80;99.90
6174;DHT22;3120;48.796;9.796;2022-11-20T15:41:01;6.90;96.00
6174;DHT22;3120;48.796;9.796;2022-11-20T15:44:01;8.30;96.80
6174;DHT22;3120;48.796;9.796;2022-11-20T15:46:30;6.90;99.90
6174;DHT22;3120;48.796;9.796;2022-11-20T15:49:02;6.90;99.90
6174;DHT22;3120;48.796;9.796;2022-11-20T15:51:34;6.90;93.40
6174;DHT22;3120;48.796;9.796;2022-11-20T15:54:00;7.00;54.00
6174;DHT22;3120;48.796;9.796;2022-11-20T15:56:28;8.50;77.50
6174;DHT22;3120;48.796;9.796;2022-11-20T15:58:54;7.10;1.00
6174;DHT22;3120;48.796;9.796;2022-11-20T16:01:21;7.00;12.40
6174;DHT22;3120;48.796;9.796;2022-11-20T16:03:50;7.00;7.20
6174;DHT22;3120;48.796;9.796;2022-11-20T16:06:15;8.70;3.10
6174;DHT22;3120;48.796;9.796;2022-11-20T16:08:41;7.00;16.90
6174;DHT22;3120;48.796;9.796;2022-11-20T16:11:09;7.00;7.40
6174;DHT22;3120;48.796;9.796;2022-11-20T16:13:35;7.00;29.20
6174;DHT22;3120;48.796;9.796;2022-11-20T16:16:22;7.00;56.60
6174;DHT22;3120;48.796;9.796;2022-11-20T16:18:49;6.90;98.10
6174;DHT22;3120;48.796;9.796;2022-11-20T16:21:15;6.90;99.90
6174;DHT22;3120;48.796;9.796;2022-11-20T16:23:41;8.60;99.90
6174;DHT22;3120;48.796;9.796;2022-11-20T16:26:15;6.90;99.90
6174;DHT22;3120;48.796;9.796;2022-11-20T16:28:45;6.80;99.90
6174;DHT22;3120;48.796;9.796;2022-11-20T16:31:12;8.50;99.90
6174;DHT22;3120;48.796;9.796;2022-11-20T16:33:38;6.70;99.90
6174;DHT22;3120;48.796;9.796;2022-11-20T16:36:14;6.70;99.90
6174;DHT22;3120;48.796;9.796;2022-11-20T16:38:41;7.30;99.90
6174;DHT22;3120;48.796;9.796;2022-11-20T16:41:07;6.60;99.90
6174;DHT22;3120;48.796;9.796;2022-11-20T16:43:44;7.40;99.90
6174;DHT22;3120;48.796;9.796;2022-11-20T16:46:11;6.40;99.90
6174;DHT22;3120;48.796;9.796;2022-11-20T16:48:39;6.40;99.90
6174;DHT22;3120;48.796;9.796;2022-11-20T16:51:08;6.30;99.90
6174;DHT22;3120;48.796;9.796;2022-11-20T16:53:34;6.30;99.90
6174;DHT22;3120;48.796;9.796;2022-11-20T16:56:10;6.30;99.90
6174;DHT22;3120;48.796;9.796;2022-11-20T16:58:35;6.20;99.90
6174;DHT22;3120;48.796;9.796;2022-11-20T17:01:09;6.10;99.90
6174;DHT22;3120;48.796;9.796;2022-11-20T17:03:36;6.10;99.90
6174;DHT22;3120;48.796;9.796;2022-11-20T17:06:16;6.10;99.90
6174;DHT22;3120;48.796;9.796;2022-11-20T17:08:42;6.10;99.90
6174;DHT22;3120;48.796;9.796;2022-11-20T17:11:09;6.10;99.90
6174;DHT22;3120;48.796;9.796;2022-11-20T17:13:36;6.50;99.90
6174;DHT22;3120;48.796;9.796;2022-11-20T17:16:03;6.20;99.90
6174;DHT22;3120;48.796;9.796;2022-11-20T17:18:30;6.10;99.90
6174;DHT22;3120;48.796;9.796;2022-11-20T17:20:56;6.10;99.90
6174;DHT22;3120;48.796;9.796;2022-11-20T17:23:22;6.10;99.90
6174;DHT22;3120;48.796;9.796;2022-11-20T17:25:49;6.10;99.90
6174;DHT22;3120;48.796;9.796;2022-11-20T17:28:15;6.10;99.90
6174;DHT22;3120;48.796;9.796;2022-11-20T17:30:40;6.10;99.90
6174;DHT22;3120;48.796;9.796;2022-11-20T17:33:06;6.00;99.90
6174;DHT22;3120;48.796;9.796;2022-11-20T17:35:35;6.00;99.90
6174;DHT22;3120;48.796;9.796;2022-11-20T17:38:00;6.00;99.90
6174;DHT22;3120;48.796;9.796;2022-11-20T17:40:26;6.00;99.90
6174;DHT22;3120;48.796;9.796;2022-11-20T17:42:51;6.00;99.90
6174;DHT22;3120;48.796;9.796;2022-11-20T17:45:17;5.90;99.90
6174;DHT22;3120;48.796;9.796;2022-11-20T17:47:43;5.90;99.90
6174;DHT22;3120;48.796;9.796;2022-11-20T17:50:10;5.90;99.90
6174;DHT22;3120;48.796;9.796;2022-11-20T17:52:36;4.70;99.90
6174;DHT22;3120;48.796;9.796;2022-11-20T17:55:01;5.80;99.90
6174;DHT22;3120;48.796;9.796;2022-11-20T17:57:29;5.80;99.90
6174;DHT22;3120;48.796;9.796;2022-11-20T18:00:14;7.70;99.90
6174;DHT22;3120;48.796;9.796;2022-11-20T18:02:41;5.70;99.90
6174;DHT22;3120;48.796;9.796;2022-11-20T18:05:07;5.60;99.90
6174;DHT22;3120;48.796;9.796;2022-11-20T18:07:55;5.60;99.90
6174;DHT22;3120;48.796;9.796;2022-11-20T18:10:20;5.60;99.90
6174;DHT22;3120;48.796;9.796;2022-11-20T18:12:46;5.60;99.90
6174;DHT22;3120;48.796;9.796;2022-11-20T18:15:11;6.50;99.90